Flight Track Log - Related Links

Times and Time Zones

All times are in EDT time to prevent confusion due to time zone crossing. See the UAL6044 flight status page for this flight to view local times or setup timezone preferences in your user account.

Time Position Orientation Groundspeed Altitude Reporting Facility
EDT Latitude Longitude Course Direction KTS MPH feet Rate Location/Type
02:40PM 39.6500 -86.3333 207° Southwest 193 222 3,900  Level Indianapolis TRACON
02:41PM 39.6500 -86.2500 90° East 276 318 6,500 2,209 Climbing Indianapolis TRACON
02:42PM 39.7942 -85.7133 79° East  Level FlightAware Approximate
02:43PM 39.8161 -85.5703 79° East  Level FlightAware Approximate
02:43PM 39.6914 -86.0486 75° East 310 357 10,600  Level Indianapolis Center
02:44PM 39.8470 -85.4300 74° East  Level FlightAware Approximate
02:44PM 39.7236 -85.9158 72° East 383 441 11,900  Level Indianapolis Center
02:45PM 39.7569 -85.7764 73° East 404 465 13,300 1,742 Climbing Indianapolis Center
02:46PM 39.7964 -85.6075 73° East 415 478 15,500 1,935 Climbing Indianapolis Center
02:47PM 39.8169 -85.4586 80° East 418 481 17,300 1,548 Climbing Indianapolis Center
02:48PM 39.8258 -85.3050 86° East 424 488 18,700 1,403 Climbing Indianapolis Center
02:49PM 39.8361 -85.1486 85° East 431 496 20,200 1,452 Climbing Indianapolis Center
02:50PM 39.8450 -84.9869 86° East 443 510 21,700 1,548 Climbing Indianapolis Center
02:51PM 39.8558 -84.8008 86° East 455 524 23,400 1,597 Climbing Indianapolis Center
02:52PM 39.8644 -84.6339 86° East 458 527 25,000 1,512 Climbing Indianapolis Center
02:53PM 39.8750 -84.4656 85° East 463 533 26,500 1,512 Climbing Indianapolis Center
02:54PM 39.9003 -84.3011 79° East 459 528 28,100 1,344 Climbing Indianapolis Center
02:55PM 39.9250 -84.1350 79° East 463 533 29,300 1,392 Climbing Indianapolis Center
02:56PM 39.9497 -83.9686 79° East 463 533 31,000 1,707 Climbing Indianapolis Center
02:57PM 39.9617 -83.8022 85° East 457 526 32,800 1,659 Climbing Indianapolis Center
02:58PM 39.9661 -83.6372 88° East 451 519 34,400 1,065 Climbing Indianapolis Center
02:59PM 39.9711 -83.4694 88° East 449 517 35,000 290 Climbing Indianapolis Center
03:00PM 39.9764 -83.2906 88° East 478 550 35,000  Level Indianapolis Center
03:01PM 39.9814 -83.1058 88° East 499 574 35,000  Level Indianapolis Center
03:02PM 39.9869 -82.8825 88° East 521 600 35,000  Level Indianapolis Center
03:03PM 39.9908 -82.6908 88° East 524 603 35,000  Level Indianapolis Center
03:04PM 39.9942 -82.4992 89° East 524 603 35,000  Level Indianapolis Center
03:05PM 39.9981 -82.3083 88° East 523 602 35,000  Level Indianapolis Center
03:06PM 40.0022 -82.1178 88° East 522 601 35,000  Level Indianapolis Center
03:07PM 40.0050 -81.9281 89° East 520 598 35,000  Level Indianapolis Center
03:09PM 40.0078 -81.7258 89° East 520 598 35,000  Level Indianapolis Center
03:10PM 40.0097 -81.5367 89° East 521 600 35,000  Level Indianapolis Center
03:11PM 40.0125 -81.3475 89° East 518 596 35,000  Level Indianapolis Center
03:12PM 40.0158 -81.1036 89° East 512 589 35,000  Level Cleveland Center
03:13PM 40.0208 -80.9219 88° East 512 589 35,000  Level Cleveland Center
03:14PM 39.9878 -80.7403 103° East 519 597 35,000  Level Cleveland Center
03:15PM 39.9128 -80.5886 123° Southeast 492 566 35,000  Level Cleveland Center
03:17PM 39.7644 -80.2806 122° Southeast 497 572 35,000  Level Cleveland Center
03:18PM 39.6911 -80.1325 123° Southeast 497 572 35,000 -1,077 Level Cleveland Center
03:19PM 39.5825 -79.9025 121° Southeast 500 575 32,200 -2,115 Descending Washington Center
03:20PM 39.5364 -79.7303 109° East 500 575 29,500 -2,550 Descending Washington Center
03:21PM 39.5047 -79.5536 103° East 500 575 27,100 -1,650 Descending Washington Center
03:22PM 39.4747 -79.3825 103° East 490 564 26,200 -950 Descending Washington Center
03:23PM 39.4389 -79.1953 104° East 485 558 25,200 -1,500 Descending Washington Center
03:24PM 39.4103 -79.0381 103° East 476 548 23,200 -2,200 Descending Washington Center
03:25PM 39.3831 -78.8864 103° East 449 517 20,800 -2,350 Descending Washington Center
03:26PM 39.3558 -78.7428 104° East 434 499 18,500 -2,250 Descending Washington Center
03:27PM 39.3322 -78.6050 102° East 412 474 16,300 -2,100 Descending Washington Center
03:28PM 39.3064 -78.4697 104° East 393 452 14,300 -2,050 Descending Washington Center
03:29PM 39.2758 -78.3478 108° East 375 432 12,200 -1,700 Descending Washington Center
03:30PM 39.2239 -78.2494 124° Southeast 344 396 10,900 -1,500 Descending Washington Center
03:31PM 39.1758 -78.1567 124° Southeast 325 374 9,200 -1,600 Descending Washington Center
03:32PM 39.1297 -78.0719 125° Southeast 305 351 7,700 -1,200 Descending Washington Center
03:33PM 39.0875 -77.9903 124° Southeast 290 334 6,800 -850 Descending Washington Center
03:34PM 39.0453 -77.9114 125° Southeast 278 320 6,000 -400 Descending Washington Center
03:35PM 39.0050 -77.8328 123° Southeast 270 311 6,000  Level Washington Center
03:36PM 38.9669 -77.7569 123° Southeast 270 311 6,000  Level Washington Center
03:37PM 38.9519 -77.6522 100° East 265 305 6,000  Level Washington Center
03:39PM 38.8833 -77.5833 142° Southeast 267 307 6,000 -568 Level Potomac TRACON
03:40PM 38.9474 -77.4599 North  Level Estimated
03:41PM 38.8000 -77.5167 North 215 247 4,200  Level Potomac TRACON

Login

Don't have an account? Register now (free) for customized features, flight alerts, and more!